sensor_id;sensor_type;location;lat;lon;timestamp;P1;durP1;ratioP1;P2;durP2;ratioP2
49828;SDS011;35723;51.194;5.112;2023-04-21T00:00:04;32.15;;;22.38;;
49828;SDS011;35723;51.194;5.112;2023-04-21T00:02:33;32.20;;;22.42;;
49828;SDS011;35723;51.194;5.112;2023-04-21T00:05:03;33.33;;;22.42;;
49828;SDS011;35723;51.194;5.112;2023-04-21T00:07:34;32.75;;;22.23;;
49828;SDS011;35723;51.194;5.112;2023-04-21T00:10:02;34.63;;;22.23;;
49828;SDS011;35723;51.194;5.112;2023-04-21T00:12:31;35.47;;;21.98;;
49828;SDS011;35723;51.194;5.112;2023-04-21T00:14:57;32.67;;;21.90;;
49828;SDS011;35723;51.194;5.112;2023-04-21T00:17:22;33.45;;;22.17;;
49828;SDS011;35723;51.194;5.112;2023-04-21T00:19:48;33.83;;;22.15;;
49828;SDS011;35723;51.194;5.112;2023-04-21T00:22:14;36.58;;;23.27;;
49828;SDS011;35723;51.194;5.112;2023-04-21T00:24:40;34.40;;;23.05;;
49828;SDS011;35723;51.194;5.112;2023-04-21T00:27:06;34.85;;;23.80;;
49828;SDS011;35723;51.194;5.112;2023-04-21T00:29:32;33.90;;;23.15;;
49828;SDS011;35723;51.194;5.112;2023-04-21T00:31:57;34.20;;;22.50;;
49828;SDS011;35723;51.194;5.112;2023-04-21T00:34:23;36.33;;;23.80;;
49828;SDS011;35723;51.194;5.112;2023-04-21T00:36:49;33.08;;;23.40;;
49828;SDS011;35723;51.194;5.112;2023-04-21T00:39:15;35.10;;;23.45;;
49828;SDS011;35723;51.194;5.112;2023-04-21T00:41:40;34.85;;;23.48;;
49828;SDS011;35723;51.194;5.112;2023-04-21T00:44:07;37.30;;;25.83;;
49828;SDS011;35723;51.194;5.112;2023-04-21T00:46:34;36.40;;;25.45;;
49828;SDS011;35723;51.194;5.112;2023-04-21T00:49:02;35.75;;;24.25;;
49828;SDS011;35723;51.194;5.112;2023-04-21T00:51:29;36.17;;;24.92;;
49828;SDS011;35723;51.194;5.112;2023-04-21T00:53:58;37.20;;;24.80;;
49828;SDS011;35723;51.194;5.112;2023-04-21T00:56:25;36.80;;;25.27;;
49828;SDS011;35723;51.194;5.112;2023-04-21T00:58:52;36.45;;;25.70;;
49828;SDS011;35723;51.194;5.112;2023-04-21T01:01:18;37.60;;;26.25;;
49828;SDS011;35723;51.194;5.112;2023-04-21T01:03:44;38.97;;;26.83;;
49828;SDS011;35723;51.194;5.112;2023-04-21T01:06:12;39.15;;;27.40;;
49828;SDS011;35723;51.194;5.112;2023-04-21T01:08:38;40.53;;;27.02;;
49828;SDS011;35723;51.194;5.112;2023-04-21T01:11:10;39.58;;;27.60;;
49828;SDS011;35723;51.194;5.112;2023-04-21T01:16:03;40.03;;;27.10;;
49828;SDS011;35723;51.194;5.112;2023-04-21T01:18:30;39.03;;;27.30;;
49828;SDS011;35723;51.194;5.112;2023-04-21T01:20:55;42.25;;;28.42;;
49828;SDS011;35723;51.194;5.112;2023-04-21T01:23:22;38.67;;;26.63;;
49828;SDS011;35723;51.194;5.112;2023-04-21T01:25:49;40.30;;;27.67;;
49828;SDS011;35723;51.194;5.112;2023-04-21T01:28:20;40.50;;;27.42;;
49828;SDS011;35723;51.194;5.112;2023-04-21T01:30:46;40.33;;;27.52;;
49828;SDS011;35723;51.194;5.112;2023-04-21T01:33:12;41.42;;;27.98;;
49828;SDS011;35723;51.194;5.112;2023-04-21T01:35:38;40.05;;;27.25;;
49828;SDS011;35723;51.194;5.112;2023-04-21T01:38:04;39.28;;;26.60;;
49828;SDS011;35723;51.194;5.112;2023-04-21T01:40:30;39.10;;;26.80;;
49828;SDS011;35723;51.194;5.112;2023-04-21T01:42:56;41.25;;;27.80;;
49828;SDS011;35723;51.194;5.112;2023-04-21T01:45:21;40.22;;;26.13;;
49828;SDS011;35723;51.194;5.112;2023-04-21T01:47:47;41.53;;;26.33;;
49828;SDS011;35723;51.194;5.112;2023-04-21T01:50:13;40.78;;;27.40;;
49828;SDS011;35723;51.194;5.112;2023-04-21T01:52:38;39.72;;;27.48;;
49828;SDS011;35723;51.194;5.112;2023-04-21T01:55:05;39.72;;;27.30;;
49828;SDS011;35723;51.194;5.112;2023-04-21T01:57:31;43.45;;;27.55;;
49828;SDS011;35723;51.194;5.112;2023-04-21T01:59:57;38.13;;;26.00;;
49828;SDS011;35723;51.194;5.112;2023-04-21T02:02:22;40.92;;;27.50;;
49828;SDS011;35723;51.194;5.112;2023-04-21T02:04:48;40.55;;;27.23;;
49828;SDS011;35723;51.194;5.112;2023-04-21T02:07:14;39.47;;;26.88;;
49828;SDS011;35723;51.194;5.112;2023-04-21T02:09:39;42.40;;;27.55;;
49828;SDS011;35723;51.194;5.112;2023-04-21T02:12:05;39.75;;;27.00;;
49828;SDS011;35723;51.194;5.112;2023-04-21T02:14:31;42.80;;;27.60;;
49828;SDS011;35723;51.194;5.112;2023-04-21T02:16:57;40.65;;;27.77;;
49828;SDS011;35723;51.194;5.112;2023-04-21T02:19:22;40.28;;;27.17;;
49828;SDS011;35723;51.194;5.112;2023-04-21T02:21:48;41.42;;;28.13;;
49828;SDS011;35723;51.194;5.112;2023-04-21T02:24:14;43.67;;;29.75;;
49828;SDS011;35723;51.194;5.112;2023-04-21T02:26:40;42.13;;;28.33;;
49828;SDS011;35723;51.194;5.112;2023-04-21T02:29:05;41.42;;;27.88;;
49828;SDS011;35723;51.194;5.112;2023-04-21T02:31:31;42.63;;;28.67;;
49828;SDS011;35723;51.194;5.112;2023-04-21T02:33:56;44.78;;;29.90;;
49828;SDS011;35723;51.194;5.112;2023-04-21T02:36:23;44.40;;;29.75;;
49828;SDS011;35723;51.194;5.112;2023-04-21T02:38:50;44.78;;;30.05;;
49828;SDS011;35723;51.194;5.112;2023-04-21T02:41:16;46.55;;;30.88;;
49828;SDS011;35723;51.194;5.112;2023-04-21T02:43:41;47.88;;;31.98;;
49828;SDS011;35723;51.194;5.112;2023-04-21T02:46:07;45.42;;;31.17;;
49828;SDS011;35723;51.194;5.112;2023-04-21T02:48:33;47.30;;;30.88;;
49828;SDS011;35723;51.194;5.112;2023-04-21T02:51:00;49.33;;;32.50;;
49828;SDS011;35723;51.194;5.112;2023-04-21T02:53:25;48.78;;;32.58;;
49828;SDS011;35723;51.194;5.112;2023-04-21T02:55:51;47.65;;;32.50;;
49828;SDS011;35723;51.194;5.112;2023-04-21T02:58:17;49.60;;;32.25;;
49828;SDS011;35723;51.194;5.112;2023-04-21T03:00:42;48.38;;;31.77;;
49828;SDS011;35723;51.194;5.112;2023-04-21T03:03:08;47.53;;;31.70;;
49828;SDS011;35723;51.194;5.112;2023-04-21T03:05:34;48.95;;;32.67;;
49828;SDS011;35723;51.194;5.112;2023-04-21T03:08:00;49.65;;;33.88;;
49828;SDS011;35723;51.194;5.112;2023-04-21T03:10:25;49.10;;;33.50;;
49828;SDS011;35723;51.194;5.112;2023-04-21T03:12:51;50.00;;;33.10;;
49828;SDS011;35723;51.194;5.112;2023-04-21T03:15:17;52.13;;;33.85;;
49828;SDS011;35723;51.194;5.112;2023-04-21T03:17:43;52.97;;;34.50;;
49828;SDS011;35723;51.194;5.112;2023-04-21T03:20:09;50.17;;;34.58;;
49828;SDS011;35723;51.194;5.112;2023-04-21T03:22:37;52.55;;;35.70;;
49828;SDS011;35723;51.194;5.112;2023-04-21T03:25:03;53.22;;;35.17;;
49828;SDS011;35723;51.194;5.112;2023-04-21T03:27:31;53.15;;;36.47;;
49828;SDS011;35723;51.194;5.112;2023-04-21T03:29:57;54.95;;;37.15;;
49828;SDS011;35723;51.194;5.112;2023-04-21T03:32:23;55.58;;;37.38;;
49828;SDS011;35723;51.194;5.112;2023-04-21T03:34:48;53.25;;;36.22;;
49828;SDS011;35723;51.194;5.112;2023-04-21T03:37:14;57.92;;;38.70;;
49828;SDS011;35723;51.194;5.112;2023-04-21T03:39:40;55.90;;;37.83;;
49828;SDS011;35723;51.194;5.112;2023-04-21T03:42:06;58.75;;;39.83;;
49828;SDS011;35723;51.194;5.112;2023-04-21T03:44:31;55.78;;;38.03;;
49828;SDS011;35723;51.194;5.112;2023-04-21T03:46:57;57.80;;;38.55;;
49828;SDS011;35723;51.194;5.112;2023-04-21T03:49:23;58.05;;;39.22;;
49828;SDS011;35723;51.194;5.112;2023-04-21T03:51:48;57.38;;;38.63;;
49828;SDS011;35723;51.194;5.112;2023-04-21T03:54:14;57.35;;;39.25;;
49828;SDS011;35723;51.194;5.112;2023-04-21T03:56:40;60.78;;;39.25;;
49828;SDS011;35723;51.194;5.112;2023-04-21T03:59:05;55.55;;;37.75;;
49828;SDS011;35723;51.194;5.112;2023-04-21T04:01:32;59.92;;;38.83;;
49828;SDS011;35723;51.194;5.112;2023-04-21T04:03:58;58.05;;;38.50;;
49828;SDS011;35723;51.194;5.112;2023-04-21T04:06:24;59.63;;;39.72;;
49828;SDS011;35723;51.194;5.112;2023-04-21T04:08:50;61.53;;;40.17;;
49828;SDS011;35723;51.194;5.112;2023-04-21T04:11:16;58.63;;;38.55;;
49828;SDS011;35723;51.194;5.112;2023-04-21T04:13:41;60.90;;;39.05;;
49828;SDS011;35723;51.194;5.112;2023-04-21T04:16:07;60.72;;;38.28;;
49828;SDS011;35723;51.194;5.112;2023-04-21T04:18:33;55.17;;;36.95;;
49828;SDS011;35723;51.194;5.112;2023-04-21T04:21:03;59.05;;;39.05;;
49828;SDS011;35723;51.194;5.112;2023-04-21T04:23:30;60.40;;;38.95;;
49828;SDS011;35723;51.194;5.112;2023-04-21T04:25:55;58.10;;;38.67;;
49828;SDS011;35723;51.194;5.112;2023-04-21T04:28:21;59.00;;;37.50;;
49828;SDS011;35723;51.194;5.112;2023-04-21T04:30:47;61.53;;;39.78;;
49828;SDS011;35723;51.194;5.112;2023-04-21T04:33:12;60.28;;;38.90;;
49828;SDS011;35723;51.194;5.112;2023-04-21T04:35:38;59.40;;;38.53;;
49828;SDS011;35723;51.194;5.112;2023-04-21T04:38:03;62.60;;;40.42;;
49828;SDS011;35723;51.194;5.112;2023-04-21T04:40:31;61.08;;;39.67;;
49828;SDS011;35723;51.194;5.112;2023-04-21T04:42:57;66.57;;;40.95;;
49828;SDS011;35723;51.194;5.112;2023-04-21T04:45:25;64.18;;;41.22;;
49828;SDS011;35723;51.194;5.112;2023-04-21T04:47:52;59.72;;;39.38;;
49828;SDS011;35723;51.194;5.112;2023-04-21T04:50:18;61.33;;;40.10;;
49828;SDS011;35723;51.194;5.112;2023-04-21T04:52:43;65.57;;;40.75;;
49828;SDS011;35723;51.194;5.112;2023-04-21T04:55:11;63.92;;;41.25;;
49828;SDS011;35723;51.194;5.112;2023-04-21T04:57:37;68.95;;;41.75;;
49828;SDS011;35723;51.194;5.112;2023-04-21T05:00:04;68.63;;;42.58;;
49828;SDS011;35723;51.194;5.112;2023-04-21T05:02:32;66.40;;;42.25;;
49828;SDS011;35723;51.194;5.112;2023-04-21T05:04:58;65.90;;;42.00;;
49828;SDS011;35723;51.194;5.112;2023-04-21T05:07:23;66.03;;;41.65;;
49828;SDS011;35723;51.194;5.112;2023-04-21T05:09:49;70.88;;;42.95;;
49828;SDS011;35723;51.194;5.112;2023-04-21T05:12:15;68.80;;;42.97;;
49828;SDS011;35723;51.194;5.112;2023-04-21T05:14:41;66.82;;;41.90;;
49828;SDS011;35723;51.194;5.112;2023-04-21T05:17:06;64.95;;;40.38;;
49828;SDS011;35723;51.194;5.112;2023-04-21T05:19:34;69.03;;;43.22;;
49828;SDS011;35723;51.194;5.112;2023-04-21T05:22:01;65.47;;;42.05;;
49828;SDS011;35723;51.194;5.112;2023-04-21T05:24:27;66.20;;;42.03;;
49828;SDS011;35723;51.194;5.112;2023-04-21T05:26:53;67.40;;;42.63;;
49828;SDS011;35723;51.194;5.112;2023-04-21T05:29:18;70.20;;;41.65;;
49828;SDS011;35723;51.194;5.112;2023-04-21T05:31:45;70.18;;;42.58;;
49828;SDS011;35723;51.194;5.112;2023-04-21T05:34:10;71.15;;;42.95;;
49828;SDS011;35723;51.194;5.112;2023-04-21T05:36:36;65.80;;;41.53;;
49828;SDS011;35723;51.194;5.112;2023-04-21T05:39:05;73.60;;;43.38;;
49828;SDS011;35723;51.194;5.112;2023-04-21T05:41:31;70.32;;;43.20;;
49828;SDS011;35723;51.194;5.112;2023-04-21T05:43:56;69.90;;;42.78;;
49828;SDS011;35723;51.194;5.112;2023-04-21T05:46:22;70.57;;;43.13;;
49828;SDS011;35723;51.194;5.112;2023-04-21T05:48:48;68.82;;;42.65;;
49828;SDS011;35723;51.194;5.112;2023-04-21T05:51:14;69.70;;;41.55;;
49828;SDS011;35723;51.194;5.112;2023-04-21T05:53:40;71.88;;;44.22;;
49828;SDS011;35723;51.194;5.112;2023-04-21T05:56:07;71.13;;;43.38;;
49828;SDS011;35723;51.194;5.112;2023-04-21T05:58:33;68.68;;;42.28;;
49828;SDS011;35723;51.194;5.112;2023-04-21T06:00:59;69.28;;;42.00;;
49828;SDS011;35723;51.194;5.112;2023-04-21T06:03:25;71.07;;;42.28;;
49828;SDS011;35723;51.194;5.112;2023-04-21T06:05:54;67.95;;;42.08;;
49828;SDS011;35723;51.194;5.112;2023-04-21T06:08:21;65.45;;;39.90;;
49828;SDS011;35723;51.194;5.112;2023-04-21T06:10:47;65.78;;;40.90;;
49828;SDS011;35723;51.194;5.112;2023-04-21T06:13:13;66.85;;;41.83;;
49828;SDS011;35723;51.194;5.112;2023-04-21T06:15:38;66.68;;;40.45;;
49828;SDS011;35723;51.194;5.112;2023-04-21T06:18:04;64.25;;;39.35;;
49828;SDS011;35723;51.194;5.112;2023-04-21T06:20:30;69.10;;;40.88;;
49828;SDS011;35723;51.194;5.112;2023-04-21T06:22:55;66.18;;;39.85;;
49828;SDS011;35723;51.194;5.112;2023-04-21T06:25:21;63.85;;;38.42;;
49828;SDS011;35723;51.194;5.112;2023-04-21T06:27:47;61.33;;;38.00;;
49828;SDS011;35723;51.194;5.112;2023-04-21T06:30:12;60.65;;;37.97;;
49828;SDS011;35723;51.194;5.112;2023-04-21T06:32:39;60.80;;;37.97;;
49828;SDS011;35723;51.194;5.112;2023-04-21T06:35:05;57.95;;;36.58;;
49828;SDS011;35723;51.194;5.112;2023-04-21T06:37:31;60.50;;;36.50;;
49828;SDS011;35723;51.194;5.112;2023-04-21T06:39:56;59.75;;;36.40;;
49828;SDS011;35723;51.194;5.112;2023-04-21T06:42:22;59.90;;;36.75;;
49828;SDS011;35723;51.194;5.112;2023-04-21T06:44:48;58.88;;;36.45;;
49828;SDS011;35723;51.194;5.112;2023-04-21T06:47:13;53.15;;;33.53;;
49828;SDS011;35723;51.194;5.112;2023-04-21T06:49:40;54.15;;;34.72;;
49828;SDS011;35723;51.194;5.112;2023-04-21T06:52:07;52.55;;;32.75;;
49828;SDS011;35723;51.194;5.112;2023-04-21T06:54:32;49.10;;;30.67;;
49828;SDS011;35723;51.194;5.112;2023-04-21T06:56:58;48.78;;;30.98;;
49828;SDS011;35723;51.194;5.112;2023-04-21T06:59:24;50.30;;;30.63;;
49828;SDS011;35723;51.194;5.112;2023-04-21T07:01:50;47.38;;;29.45;;
49828;SDS011;35723;51.194;5.112;2023-04-21T07:04:18;47.55;;;29.90;;
49828;SDS011;35723;51.194;5.112;2023-04-21T07:06:45;48.47;;;28.83;;
49828;SDS011;35723;51.194;5.112;2023-04-21T07:09:11;46.47;;;29.13;;
49828;SDS011;35723;51.194;5.112;2023-04-21T07:11:36;47.88;;;28.77;;
49828;SDS011;35723;51.194;5.112;2023-04-21T07:14:02;45.90;;;27.98;;
49828;SDS011;35723;51.194;5.112;2023-04-21T07:16:28;45.90;;;27.85;;
49828;SDS011;35723;51.194;5.112;2023-04-21T07:18:54;44.08;;;27.55;;
49828;SDS011;35723;51.194;5.112;2023-04-21T07:21:20;43.55;;;26.70;;
49828;SDS011;35723;51.194;5.112;2023-04-21T07:23:45;43.17;;;27.25;;
49828;SDS011;35723;51.194;5.112;2023-04-21T07:26:11;45.30;;;28.02;;
49828;SDS011;35723;51.194;5.112;2023-04-21T07:28:37;42.65;;;26.15;;
49828;SDS011;35723;51.194;5.112;2023-04-21T07:31:04;42.00;;;26.55;;
49828;SDS011;35723;51.194;5.112;2023-04-21T07:33:30;42.53;;;26.55;;
49828;SDS011;35723;51.194;5.112;2023-04-21T07:35:56;41.25;;;25.38;;
49828;SDS011;35723;51.194;5.112;2023-04-21T07:38:22;41.78;;;26.05;;
49828;SDS011;35723;51.194;5.112;2023-04-21T07:40:47;38.70;;;24.15;;
49828;SDS011;35723;51.194;5.112;2023-04-21T07:43:13;39.42;;;24.73;;
49828;SDS011;35723;51.194;5.112;2023-04-21T07:45:39;38.58;;;24.63;;
49828;SDS011;35723;51.194;5.112;2023-04-21T07:48:05;39.10;;;23.67;;
49828;SDS011;35723;51.194;5.112;2023-04-21T07:50:31;35.35;;;21.75;;
49828;SDS011;35723;51.194;5.112;2023-04-21T07:52:59;35.25;;;21.33;;
49828;SDS011;35723;51.194;5.112;2023-04-21T07:55:25;35.72;;;22.30;;
49828;SDS011;35723;51.194;5.112;2023-04-21T07:57:51;36.47;;;22.63;;
49828;SDS011;35723;51.194;5.112;2023-04-21T08:00:17;37.22;;;22.38;;
49828;SDS011;35723;51.194;5.112;2023-04-21T08:02:43;36.00;;;22.52;;
49828;SDS011;35723;51.194;5.112;2023-04-21T08:05:09;38.13;;;22.85;;
49828;SDS011;35723;51.194;5.112;2023-04-21T08:07:35;35.15;;;21.55;;
49828;SDS011;35723;51.194;5.112;2023-04-21T08:10:00;36.13;;;20.88;;
49828;SDS011;35723;51.194;5.112;2023-04-21T08:12:26;35.67;;;21.92;;
49828;SDS011;35723;51.194;5.112;2023-04-21T08:14:52;38.55;;;24.25;;
49828;SDS011;35723;51.194;5.112;2023-04-21T08:17:18;39.97;;;24.83;;
49828;SDS011;35723;51.194;5.112;2023-04-21T08:19:44;42.75;;;24.85;;
49828;SDS011;35723;51.194;5.112;2023-04-21T08:22:09;38.05;;;22.58;;
49828;SDS011;35723;51.194;5.112;2023-04-21T08:24:35;38.30;;;22.88;;
49828;SDS011;35723;51.194;5.112;2023-04-21T08:27:01;36.47;;;22.23;;
49828;SDS011;35723;51.194;5.112;2023-04-21T08:29:27;36.45;;;23.02;;
49828;SDS011;35723;51.194;5.112;2023-04-21T08:31:52;38.28;;;23.55;;
49828;SDS011;35723;51.194;5.112;2023-04-21T08:34:18;40.13;;;24.55;;
49828;SDS011;35723;51.194;5.112;2023-04-21T08:36:44;38.88;;;24.98;;
49828;SDS011;35723;51.194;5.112;2023-04-21T08:39:11;41.25;;;26.23;;
49828;SDS011;35723;51.194;5.112;2023-04-21T08:41:38;39.42;;;25.10;;
49828;SDS011;35723;51.194;5.112;2023-04-21T08:44:05;38.22;;;24.58;;
49828;SDS011;35723;51.194;5.112;2023-04-21T08:46:31;38.72;;;24.23;;
49828;SDS011;35723;51.194;5.112;2023-04-21T08:48:58;38.22;;;24.67;;
49828;SDS011;35723;51.194;5.112;2023-04-21T08:51:26;33.78;;;22.05;;
49828;SDS011;35723;51.194;5.112;2023-04-21T08:53:55;35.22;;;24.17;;
49828;SDS011;35723;51.194;5.112;2023-04-21T08:56:25;38.05;;;23.65;;
49828;SDS011;35723;51.194;5.112;2023-04-21T08:58:51;36.60;;;24.02;;
49828;SDS011;35723;51.194;5.112;2023-04-21T09:01:17;38.10;;;24.08;;
49828;SDS011;35723;51.194;5.112;2023-04-21T09:03:42;35.60;;;23.73;;
49828;SDS011;35723;51.194;5.112;2023-04-21T09:06:09;34.33;;;22.65;;
49828;SDS011;35723;51.194;5.112;2023-04-21T09:08:37;33.83;;;21.67;;
49828;SDS011;35723;51.194;5.112;2023-04-21T09:11:06;35.35;;;22.65;;
49828;SDS011;35723;51.194;5.112;2023-04-21T09:13:35;35.85;;;22.40;;
49828;SDS011;35723;51.194;5.112;2023-04-21T09:16:04;33.53;;;21.42;;
49828;SDS011;35723;51.194;5.112;2023-04-21T09:18:41;35.40;;;21.85;;
49828;SDS011;35723;51.194;5.112;2023-04-21T09:21:12;34.17;;;21.40;;
49828;SDS011;35723;51.194;5.112;2023-04-21T09:24:03;32.85;;;21.02;;
49828;SDS011;35723;51.194;5.112;2023-04-21T09:26:30;33.65;;;21.38;;
49828;SDS011;35723;51.194;5.112;2023-04-21T09:28:56;32.40;;;20.98;;
49828;SDS011;35723;51.194;5.112;2023-04-21T09:31:22;31.42;;;20.30;;
49828;SDS011;35723;51.194;5.112;2023-04-21T09:34:15;31.63;;;19.98;;
49828;SDS011;35723;51.194;5.112;2023-04-21T09:36:44;32.08;;;19.30;;
49828;SDS011;35723;51.194;5.112;2023-04-21T09:39:11;28.42;;;17.95;;
49828;SDS011;35723;51.194;5.112;2023-04-21T09:41:37;27.88;;;17.98;;
49828;SDS011;35723;51.194;5.112;2023-04-21T09:44:02;29.67;;;18.00;;
49828;SDS011;35723;51.194;5.112;2023-04-21T09:46:32;29.35;;;18.92;;
49828;SDS011;35723;51.194;5.112;2023-04-21T09:49:00;30.25;;;18.30;;
49828;SDS011;35723;51.194;5.112;2023-04-21T09:51:26;32.97;;;19.60;;
49828;SDS011;35723;51.194;5.112;2023-04-21T09:53:55;30.63;;;19.63;;
49828;SDS011;35723;51.194;5.112;2023-04-21T09:56:23;29.63;;;19.13;;
49828;SDS011;35723;51.194;5.112;2023-04-21T09:58:55;28.75;;;17.92;;
49828;SDS011;35723;51.194;5.112;2023-04-21T10:01:25;28.77;;;18.05;;
49828;SDS011;35723;51.194;5.112;2023-04-21T10:03:53;30.30;;;18.10;;
49828;SDS011;35723;51.194;5.112;2023-04-21T10:06:19;27.42;;;16.98;;
49828;SDS011;35723;51.194;5.112;2023-04-21T10:08:47;27.27;;;17.20;;
49828;SDS011;35723;51.194;5.112;2023-04-21T10:11:16;26.52;;;16.15;;
49828;SDS011;35723;51.194;5.112;2023-04-21T10:13:42;27.42;;;17.25;;
49828;SDS011;35723;51.194;5.112;2023-04-21T10:16:09;28.15;;;17.77;;
49828;SDS011;35723;51.194;5.112;2023-04-21T10:18:44;26.52;;;16.00;;
49828;SDS011;35723;51.194;5.112;2023-04-21T10:21:11;26.25;;;15.68;;
49828;SDS011;35723;51.194;5.112;2023-04-21T10:26:20;24.00;;;13.75;;
49828;SDS011;35723;51.194;5.112;2023-04-21T10:28:52;23.20;;;12.48;;
49828;SDS011;35723;51.194;5.112;2023-04-21T10:31:35;21.40;;;11.63;;
49828;SDS011;35723;51.194;5.112;2023-04-21T10:44:51;17.70;;;9.55;;
49828;SDS011;35723;51.194;5.112;2023-04-21T10:47:24;17.58;;;8.88;;
49828;SDS011;35723;51.194;5.112;2023-04-21T10:49:50;18.33;;;8.90;;
49828;SDS011;35723;51.194;5.112;2023-04-21T10:52:16;18.33;;;9.32;;
49828;SDS011;35723;51.194;5.112;2023-04-21T10:57:14;19.33;;;9.77;;
49828;SDS011;35723;51.194;5.112;2023-04-21T10:59:42;16.92;;;9.00;;
49828;SDS011;35723;51.194;5.112;2023-04-21T11:02:10;17.60;;;9.05;;
49828;SDS011;35723;51.194;5.112;2023-04-21T11:04:37;16.05;;;8.48;;
49828;SDS011;35723;51.194;5.112;2023-04-21T11:07:21;17.95;;;8.60;;
49828;SDS011;35723;51.194;5.112;2023-04-21T11:09:55;15.95;;;8.05;;
49828;SDS011;35723;51.194;5.112;2023-04-21T11:12:25;18.58;;;9.02;;
49828;SDS011;35723;51.194;5.112;2023-04-21T11:14:53;21.90;;;9.23;;
49828;SDS011;35723;51.194;5.112;2023-04-21T11:17:19;17.63;;;7.85;;
49828;SDS011;35723;51.194;5.112;2023-04-21T11:19:51;17.48;;;8.23;;
49828;SDS011;35723;51.194;5.112;2023-04-21T11:22:22;17.50;;;7.30;;
49828;SDS011;35723;51.194;5.112;2023-04-21T11:24:49;15.50;;;7.50;;
49828;SDS011;35723;51.194;5.112;2023-04-21T11:27:17;14.20;;;7.22;;
49828;SDS011;35723;51.194;5.112;2023-04-21T11:29:46;14.25;;;7.28;;
49828;SDS011;35723;51.194;5.112;2023-04-21T11:32:14;13.60;;;6.85;;
49828;SDS011;35723;51.194;5.112;2023-04-21T11:34:41;16.05;;;7.20;;
49828;SDS011;35723;51.194;5.112;2023-04-21T11:37:08;16.02;;;7.40;;
49828;SDS011;35723;51.194;5.112;2023-04-21T11:39:34;15.50;;;7.32;;
49828;SDS011;35723;51.194;5.112;2023-04-21T11:42:00;16.92;;;7.32;;
49828;SDS011;35723;51.194;5.112;2023-04-21T11:44:37;12.82;;;6.65;;
49828;SDS011;35723;51.194;5.112;2023-04-21T11:47:14;16.48;;;7.60;;
49828;SDS011;35723;51.194;5.112;2023-04-21T11:52:11;16.73;;;7.60;;
49828;SDS011;35723;51.194;5.112;2023-04-21T11:55:15;15.18;;;7.45;;
49828;SDS011;35723;51.194;5.112;2023-04-21T11:57:42;13.18;;;6.63;;
49828;SDS011;35723;51.194;5.112;2023-04-21T12:00:09;14.75;;;6.00;;
49828;SDS011;35723;51.194;5.112;2023-04-21T12:02:36;14.27;;;6.20;;
49828;SDS011;35723;51.194;5.112;2023-04-21T12:07:43;16.42;;;7.80;;
49828;SDS011;35723;51.194;5.112;2023-04-21T12:10:18;16.55;;;8.70;;
49828;SDS011;35723;51.194;5.112;2023-04-21T12:12:45;17.70;;;8.45;;
49828;SDS011;35723;51.194;5.112;2023-04-21T12:15:16;18.65;;;7.63;;
49828;SDS011;35723;51.194;5.112;2023-04-21T12:20:17;16.92;;;8.20;;
49828;SDS011;35723;51.194;5.112;2023-04-21T12:22:44;15.02;;;7.10;;
49828;SDS011;35723;51.194;5.112;2023-04-21T12:25:10;17.85;;;7.80;;
49828;SDS011;35723;51.194;5.112;2023-04-21T12:27:36;17.40;;;8.25;;
49828;SDS011;35723;51.194;5.112;2023-04-21T12:30:12;19.10;;;8.30;;
49828;SDS011;35723;51.194;5.112;2023-04-21T12:32:37;17.90;;;8.73;;
49828;SDS011;35723;51.194;5.112;2023-04-21T12:35:03;16.55;;;7.97;;
49828;SDS011;35723;51.194;5.112;2023-04-21T12:37:29;17.85;;;8.40;;
49828;SDS011;35723;51.194;5.112;2023-04-21T12:39:55;20.23;;;9.00;;
49828;SDS011;35723;51.194;5.112;2023-04-21T12:42:21;19.13;;;8.63;;
49828;SDS011;35723;51.194;5.112;2023-04-21T12:44:47;15.07;;;7.60;;
49828;SDS011;35723;51.194;5.112;2023-04-21T12:47:13;18.17;;;7.57;;
49828;SDS011;35723;51.194;5.112;2023-04-21T12:49:38;19.10;;;8.75;;
49828;SDS011;35723;51.194;5.112;2023-04-21T12:52:05;15.43;;;7.40;;
49828;SDS011;35723;51.194;5.112;2023-04-21T12:54:30;16.38;;;7.90;;
49828;SDS011;35723;51.194;5.112;2023-04-21T12:56:56;16.30;;;7.22;;
49828;SDS011;35723;51.194;5.112;2023-04-21T12:59:22;12.98;;;6.78;;
49828;SDS011;35723;51.194;5.112;2023-04-21T13:01:49;14.52;;;7.10;;
49828;SDS011;35723;51.194;5.112;2023-04-21T13:04:14;18.90;;;8.10;;
49828;SDS011;35723;51.194;5.112;2023-04-21T13:06:40;16.50;;;8.00;;
49828;SDS011;35723;51.194;5.112;2023-04-21T13:09:06;17.65;;;8.98;;
49828;SDS011;35723;51.194;5.112;2023-04-21T13:11:32;17.90;;;9.02;;
49828;SDS011;35723;51.194;5.112;2023-04-21T13:13:58;14.98;;;7.72;;
49828;SDS011;35723;51.194;5.112;2023-04-21T13:16:23;17.20;;;8.85;;
49828;SDS011;35723;51.194;5.112;2023-04-21T13:18:49;17.05;;;8.07;;
49828;SDS011;35723;51.194;5.112;2023-04-21T13:21:15;16.42;;;7.82;;
49828;SDS011;35723;51.194;5.112;2023-04-21T13:23:40;16.95;;;7.10;;
49828;SDS011;35723;51.194;5.112;2023-04-21T13:26:06;14.05;;;6.97;;
49828;SDS011;35723;51.194;5.112;2023-04-21T13:28:32;16.20;;;6.72;;
49828;SDS011;35723;51.194;5.112;2023-04-21T13:30:58;14.15;;;6.88;;
49828;SDS011;35723;51.194;5.112;2023-04-21T13:33:24;15.30;;;7.47;;
49828;SDS011;35723;51.194;5.112;2023-04-21T13:35:50;17.80;;;7.55;;
49828;SDS011;35723;51.194;5.112;2023-04-21T13:38:16;18.50;;;8.73;;
49828;SDS011;35723;51.194;5.112;2023-04-21T13:40:41;17.75;;;8.88;;
49828;SDS011;35723;51.194;5.112;2023-04-21T13:43:07;15.02;;;7.50;;
49828;SDS011;35723;51.194;5.112;2023-04-21T13:45:33;15.07;;;7.88;;
49828;SDS011;35723;51.194;5.112;2023-04-21T13:47:58;16.05;;;7.70;;
49828;SDS011;35723;51.194;5.112;2023-04-21T13:50:24;17.75;;;9.15;;
49828;SDS011;35723;51.194;5.112;2023-04-21T13:52:50;17.00;;;8.55;;
49828;SDS011;35723;51.194;5.112;2023-04-21T13:55:16;18.52;;;9.07;;
49828;SDS011;35723;51.194;5.112;2023-04-21T13:57:42;16.45;;;8.30;;
49828;SDS011;35723;51.194;5.112;2023-04-21T14:00:08;17.45;;;9.10;;
49828;SDS011;35723;51.194;5.112;2023-04-21T14:02:35;17.35;;;8.48;;
49828;SDS011;35723;51.194;5.112;2023-04-21T14:05:01;15.77;;;7.82;;
49828;SDS011;35723;51.194;5.112;2023-04-21T14:07:27;14.93;;;7.22;;
49828;SDS011;35723;51.194;5.112;2023-04-21T14:09:53;14.73;;;7.15;;
49828;SDS011;35723;51.194;5.112;2023-04-21T14:12:19;16.67;;;7.70;;
49828;SDS011;35723;51.194;5.112;2023-04-21T14:14:44;17.60;;;8.45;;
49828;SDS011;35723;51.194;5.112;2023-04-21T14:17:10;16.08;;;8.07;;
49828;SDS011;35723;51.194;5.112;2023-04-21T14:19:36;15.32;;;7.70;;
49828;SDS011;35723;51.194;5.112;2023-04-21T14:22:01;17.63;;;8.57;;
49828;SDS011;35723;51.194;5.112;2023-04-21T14:24:27;17.05;;;8.55;;
49828;SDS011;35723;51.194;5.112;2023-04-21T14:26:54;15.82;;;7.95;;
49828;SDS011;35723;51.194;5.112;2023-04-21T14:29:23;16.27;;;7.95;;
49828;SDS011;35723;51.194;5.112;2023-04-21T14:31:49;16.55;;;8.05;;
49828;SDS011;35723;51.194;5.112;2023-04-21T14:34:15;17.85;;;9.00;;
49828;SDS011;35723;51.194;5.112;2023-04-21T14:36:41;22.67;;;10.60;;
49828;SDS011;35723;51.194;5.112;2023-04-21T14:39:07;22.27;;;11.98;;
49828;SDS011;35723;51.194;5.112;2023-04-21T14:41:34;21.60;;;11.63;;
49828;SDS011;35723;51.194;5.112;2023-04-21T14:43:59;22.08;;;11.73;;
49828;SDS011;35723;51.194;5.112;2023-04-21T14:46:27;23.10;;;11.55;;
49828;SDS011;35723;51.194;5.112;2023-04-21T14:48:53;22.02;;;10.40;;